createdAt,value
2022-09-20T00:00:29.484Z,98189.62
2022-09-20T00:01:30.970Z,98193.56
2022-09-20T00:02:29.545Z,98199.62
2022-09-20T00:03:29.521Z,98203.64
2022-09-20T00:04:29.600Z,98201.34
2022-09-20T00:05:29.676Z,98201.41
2022-09-20T00:06:30.799Z,98203.55
2022-09-20T00:07:29.660Z,98200.24
2022-09-20T00:08:29.771Z,98209.61
2022-09-20T00:09:30.169Z,98207.96
2022-09-20T00:10:30.000Z,98206.53
2022-09-20T00:11:31.320Z,98211.86
2022-09-20T00:12:29.757Z,98216.74
2022-09-20T00:13:30.216Z,98212.64
2022-09-20T00:14:30.393Z,98218.97
2022-09-20T00:15:30.289Z,98218.49
2022-09-20T00:16:31.181Z,98222.16
2022-09-20T00:17:29.802Z,98221.03
2022-09-20T00:18:29.810Z,98226.5
2022-09-20T00:19:29.946Z,98222.84
2022-09-20T00:20:29.824Z,98218.67
2022-09-20T00:21:30.732Z,98222.11
2022-09-20T00:22:30.018Z,98224.05
2022-09-20T00:23:29.912Z,98228.55
2022-09-20T00:24:29.930Z,98227.52
2022-09-20T00:25:29.900Z,98228.86
2022-09-20T00:26:29.922Z,98223.95
2022-09-20T00:27:29.905Z,98224.47
2022-09-20T00:28:31.194Z,98224.67
2022-09-20T00:29:30.045Z,98227.45
2022-09-20T00:30:29.982Z,98230.71
2022-09-20T00:31:30.105Z,98233.39
2022-09-20T00:32:31.012Z,98236.56
2022-09-20T00:33:30.026Z,98234.66
2022-09-20T00:34:30.087Z,98231.14
2022-09-20T00:35:30.083Z,98237.53
2022-09-20T00:36:30.367Z,98238.44
2022-09-20T00:37:30.122Z,98242.47
2022-09-20T00:38:30.292Z,98241.82
2022-09-20T00:39:30.133Z,98246.02
2022-09-20T00:40:30.255Z,98243.12
2022-09-20T00:41:30.915Z,98247.14
2022-09-20T00:42:30.763Z,98246.3
2022-09-20T00:45:37.390Z,98251.28
2022-09-20T00:46:43.335Z,98253.45
2022-09-20T00:47:42.145Z,98257.3
2022-09-20T00:48:40.005Z,98252.67
2022-09-20T00:49:40.530Z,98253.71
2022-09-20T00:50:44.503Z,98254.48
2022-09-20T00:51:43.051Z,98251.49
2022-09-20T00:52:44.956Z,98249.25
2022-09-20T00:53:44.824Z,98253.64
2022-09-20T00:54:42.131Z,98255.66
2022-09-20T00:56:44.049Z,98252.3
2022-09-20T00:57:44.828Z,98253.34
2022-09-20T00:58:46.480Z,98256.23
2022-09-20T00:59:45.910Z,98253.72
2022-09-20T01:00:44.234Z,98251.93
2022-09-20T01:01:45.022Z,98255.01
2022-09-20T01:02:47.456Z,98256.42
2022-09-20T01:03:44.188Z,98258.25
2022-09-20T01:04:44.625Z,98253.88
2022-09-20T01:05:44.589Z,98254.55
2022-09-20T01:06:45.647Z,98258.3
2022-09-20T01:07:46.158Z,98258.5
2022-09-20T01:08:46.377Z,98260.98
2022-09-20T01:09:44.057Z,98260.8
2022-09-20T01:10:43.929Z,98260.39
2022-09-20T01:11:44.049Z,98258.38
2022-09-20T01:12:44.753Z,98260.75
2022-09-20T01:13:43.924Z,98257.97
2022-09-20T01:14:44.964Z,98261.8
2022-09-20T01:15:46.562Z,98262.56
2022-09-20T01:16:44.288Z,98259.33
2022-09-20T01:17:47.564Z,98267.52
2022-09-20T01:18:44.571Z,98269.2
2022-09-20T01:20:49.729Z,98268.36
2022-09-20T01:21:48.831Z,98270.73
2022-09-20T01:28:05.857Z,98277.89
2022-09-20T01:32:16.223Z,98274.91
2022-09-20T01:34:17.870Z,98274.11
2022-09-20T01:35:16.627Z,98279.72
2022-09-20T01:36:25.980Z,98279.42
2022-09-20T01:42:32.082Z,98272.05
2022-09-20T01:43:37.531Z,98277.73
2022-09-20T01:44:38.318Z,98278.06
2022-09-20T01:45:31.768Z,98278.38
2022-09-20T01:46:31.500Z,98275.2
2022-09-20T01:48:36.688Z,98272.79
2022-09-20T02:05:27.071Z,98304.31
2022-09-20T02:11:40.621Z,98309.62
2022-09-20T02:13:46.466Z,98306.52
2022-09-20T02:16:56.830Z,98310.7
2022-09-20T02:20:58.644Z,98313.73
2022-09-20T02:31:28.508Z,98324.58
2022-09-20T02:33:43.054Z,98327.16
2022-09-20T02:38:44.644Z,98331.56
2022-09-20T02:41:57.934Z,98332.6
2022-09-20T02:42:56.209Z,98341.73
2022-09-20T02:45:03.591Z,98344.24
2022-09-20T02:46:12.555Z,98344.91
2022-09-20T02:47:13.528Z,98345.16
2022-09-20T02:48:05.387Z,98342.38
2022-09-20T02:49:18.729Z,98345.62
2022-09-20T02:50:16.701Z,98349.93
2022-09-20T02:51:20.941Z,98353.19
2022-09-20T02:57:36.336Z,98356.36
2022-09-20T02:58:42.185Z,98358.64
2022-09-20T02:59:38.627Z,98356.73
2022-09-20T03:00:36.986Z,98359.5
2022-09-20T03:06:55.248Z,98370.02
2022-09-20T03:12:18.331Z,98373.69
2022-09-20T03:13:17.959Z,98379.25
2022-09-20T03:16:22.738Z,98379.16
2022-09-20T03:17:27.141Z,98383.8
2022-09-20T03:18:33.711Z,98384.88
2022-09-20T03:20:33.487Z,98379.07
2022-09-20T03:26:57.879Z,98386.46
2022-09-20T03:28:59.343Z,98387.62
2022-09-20T03:42:30.706Z,98403.17
2022-09-20T03:46:44.984Z,98408.91
2022-09-20T04:03:23.113Z,98425.79
2022-09-20T04:05:22.366Z,98427.98
2022-09-20T04:13:39.733Z,98431.52
2022-09-20T04:21:00.723Z,98448.52
2022-09-20T04:21:57.958Z,98447.34
2022-09-20T04:22:59.710Z,98448.2
2022-09-20T04:26:02.982Z,98448.8
2022-09-20T04:28:12.824Z,98447.17
2022-09-20T04:32:22.821Z,98458.27
2022-09-20T04:33:31.688Z,98458.73
2022-09-20T04:34:26.239Z,98463.89
2022-09-20T04:35:36.067Z,98458.62
2022-09-20T04:37:34.163Z,98461.67
2022-09-20T04:38:30.697Z,98462.9
2022-09-20T04:56:34.999Z,98483.87
2022-09-20T05:09:59.465Z,98501.3
2022-09-20T05:17:20.512Z,98516.52
2022-09-20T05:19:30.306Z,98517.34
2022-09-20T05:22:41.738Z,98526.85
2022-09-20T05:30:48.872Z,98538.75
2022-09-20T05:34:01.171Z,98536.56
2022-09-20T05:37:01.814Z,98539.09
2022-09-20T05:43:12.569Z,98545.88
2022-09-20T05:49:34.665Z,98548.7
2022-09-20T05:52:44.798Z,98555.11
2022-09-20T05:57:59.632Z,98557.66
2022-09-20T06:03:22.355Z,98568.69
2022-09-20T06:04:23.130Z,98566.89
2022-09-20T06:06:28.067Z,98567.33
2022-09-20T06:07:30.050Z,98568.52
2022-09-20T06:14:41.682Z,98573.07
2022-09-20T06:15:43.519Z,98575.69
2022-09-20T06:17:47.949Z,98578.79
2022-09-20T06:18:57.278Z,98574.86
2022-09-20T06:20:02.626Z,98577.67
2022-09-20T06:21:55.229Z,98585.34
2022-09-20T06:22:55.084Z,98585.97
2022-09-20T06:23:57.414Z,98588.55
2022-09-20T06:26:59.669Z,98589.69
2022-09-20T06:29:02.012Z,98587.73
2022-09-20T06:30:01.644Z,98594.52
2022-09-20T06:30:59.929Z,98593.52
2022-09-20T06:31:59.661Z,98600.05
2022-09-20T06:33:01.181Z,98603.54
2022-09-20T06:34:04.162Z,98605.41
2022-09-20T06:35:01.328Z,98606.48
2022-09-20T06:41:14.327Z,98614.98
2022-09-20T06:42:14.135Z,98623.27
2022-09-20T06:43:14.128Z,98622.83
2022-09-20T06:44:14.104Z,98620.45
2022-09-20T06:45:14.154Z,98623.41
2022-09-20T06:46:14.454Z,98623.94
2022-09-20T06:47:14.467Z,98624.86
2022-09-20T06:48:14.669Z,98629.62
2022-09-20T06:49:14.187Z,98626.47
2022-09-20T06:50:15.333Z,98625.3
2022-09-20T06:51:14.223Z,98624.3
2022-09-20T06:52:15.112Z,98622.97
2022-09-20T06:53:18.302Z,98628.9
2022-09-20T06:54:17.459Z,98629.16
2022-09-20T06:58:23.470Z,98623.39
2022-09-20T06:59:23.507Z,98626.78
2022-09-20T07:00:23.545Z,98632.46
2022-09-20T07:01:30.023Z,98631.45
2022-09-20T07:02:27.112Z,98636.7
2022-09-20T07:03:27.047Z,98641.51
2022-09-20T07:04:27.105Z,98641.84
2022-09-20T07:05:27.093Z,98639.68
2022-09-20T07:06:27.096Z,98643.81
2022-09-20T07:07:27.130Z,98647.61
2022-09-20T07:08:27.122Z,98649.26
2022-09-20T07:09:27.141Z,98650.75
2022-09-20T07:10:27.668Z,98645.84
2022-09-20T07:11:27.424Z,98653.55
2022-09-20T07:12:28.596Z,98652.59
2022-09-20T07:13:27.281Z,98653.22
2022-09-20T07:14:27.454Z,98650.79
2022-09-20T07:15:27.896Z,98646.87
2022-09-20T07:16:27.318Z,98656.02
2022-09-20T07:17:27.247Z,98656.26
2022-09-20T07:18:27.269Z,98655.19
2022-09-20T07:19:27.266Z,98658.06
2022-09-20T07:20:27.589Z,98660.97
2022-09-20T07:21:27.449Z,98663.25
2022-09-20T07:22:27.356Z,98662.78
2022-09-20T07:23:28.122Z,98668.59
2022-09-20T07:24:27.343Z,98667.97
2022-09-20T07:25:27.361Z,98672.94
2022-09-20T07:26:28.412Z,98672.19
2022-09-20T07:27:29.379Z,98669.98
2022-09-20T07:28:28.348Z,98672.06
2022-09-20T07:29:27.919Z,98675.73
2022-09-20T07:30:27.400Z,98673.23
2022-09-20T07:31:29.046Z,98671.2
2022-09-20T07:32:27.482Z,98671.94
2022-09-20T07:33:27.462Z,98677.81
2022-09-20T07:34:27.436Z,98680.41
2022-09-20T07:35:27.492Z,98677.78
2022-09-20T07:36:27.714Z,98675.06
2022-09-20T07:37:27.585Z,98672.42
2022-09-20T07:38:27.547Z,98678.59
2022-09-20T07:39:27.517Z,98671.55
2022-09-20T07:40:27.607Z,98675.62
2022-09-20T07:41:27.579Z,98681.91
2022-09-20T07:42:27.786Z,98677.33
2022-09-20T07:43:28.335Z,98683.77
2022-09-20T07:44:27.597Z,98685.2
2022-09-20T07:45:27.672Z,98689.52
2022-09-20T07:46:27.697Z,98686.31
2022-09-20T07:47:27.671Z,98692.26
2022-09-20T07:48:29.652Z,98688.35
2022-09-20T07:49:28.608Z,98693.95
2022-09-20T07:50:27.703Z,98698.3
2022-09-20T07:51:27.697Z,98697.01
2022-09-20T07:52:27.719Z,98696.34
2022-09-20T07:53:28.257Z,98699.1
2022-09-20T07:54:27.893Z,98705.08
2022-09-20T07:55:27.843Z,98700.45
2022-09-20T07:56:27.809Z,98706.75
2022-09-20T07:57:27.822Z,98704.22
2022-09-20T07:58:28.640Z,98704.94
2022-09-20T07:59:27.829Z,98707.58
2022-09-20T08:00:27.805Z,98706.6
2022-09-20T08:01:27.887Z,98709.62
2022-09-20T08:02:27.969Z,98711.95
2022-09-20T08:03:29.936Z,98708.45
2022-09-20T08:04:27.898Z,98713.38
2022-09-20T08:05:27.882Z,98712.67
2022-09-20T08:06:27.937Z,98713.38
2022-09-20T08:07:29.101Z,98715.76
2022-09-20T08:08:28.506Z,98719.13
2022-09-20T08:09:27.950Z,98718.19
2022-09-20T08:10:27.968Z,98724.19
2022-09-20T08:11:28.117Z,98722.05
2022-09-20T08:14:30.559Z,98720.97
2022-09-20T08:15:30.598Z,98725.56
2022-09-20T08:16:30.988Z,98726.61
2022-09-20T08:17:30.618Z,98729.09
2022-09-20T08:18:31.167Z,98730.75
2022-09-20T08:19:30.666Z,98731.1
2022-09-20T08:20:30.659Z,98735.93
2022-09-20T08:21:32.280Z,98736.16
2022-09-20T08:22:30.863Z,98739.2
2022-09-20T08:23:30.676Z,98739.11
2022-09-20T08:24:30.783Z,98740.03
2022-09-20T08:25:30.755Z,98742.42
2022-09-20T08:26:31.088Z,98743.72
2022-09-20T08:27:30.735Z,98746.66
2022-09-20T08:28:31.271Z,98744.56
2022-09-20T08:29:30.826Z,98742.92
2022-09-20T08:30:30.763Z,98745.49
2022-09-20T08:31:31.635Z,98745.55
2022-09-20T08:32:30.810Z,98743.12
2022-09-20T08:33:30.991Z,98744.52
2022-09-20T08:34:30.849Z,98747.02
2022-09-20T08:35:30.815Z,98748.92
2022-09-20T08:36:36.053Z,98749.91
2022-09-20T08:37:33.044Z,98750.29
2022-09-20T08:40:36.167Z,98761.73
2022-09-20T08:41:39.836Z,98763.61
2022-09-20T08:42:42.045Z,98760.95
2022-09-20T08:45:45.603Z,98765.7
2022-09-20T08:46:50.471Z,98765.66
2022-09-20T08:48:48.357Z,98771.02
2022-09-20T08:49:49.201Z,98768.7
2022-09-20T08:50:48.749Z,98772.53
2022-09-20T08:51:49.118Z,98771.85
2022-09-20T08:52:51.717Z,98772.33
2022-09-20T08:53:49.837Z,98777.23
2022-09-20T08:54:48.386Z,98773.54
2022-09-20T08:55:48.473Z,98778.34
2022-09-20T08:56:48.372Z,98775.59
2022-09-20T08:57:52.930Z,98776.46
2022-09-20T08:58:49.273Z,98779.11
2022-09-20T08:59:49.236Z,98776.98
2022-09-20T09:00:49.214Z,98783.23
2022-09-20T09:01:50.567Z,98776.87
2022-09-20T09:03:52.957Z,98784.2
2022-09-20T09:04:51.934Z,98781.73
2022-09-20T09:05:53.103Z,98786.25
2022-09-20T09:06:52.062Z,98786.97
2022-09-20T09:07:51.820Z,98784.08
2022-09-20T09:08:52.017Z,98790.26
2022-09-20T09:09:53.737Z,98790.84
2022-09-20T09:10:53.493Z,98791
2022-09-20T09:11:53.021Z,98789.59
2022-09-20T09:12:52.081Z,98792.55
2022-09-20T09:13:55.645Z,98793.59
2022-09-20T09:14:53.140Z,98795.3
2022-09-20T09:16:53.363Z,98793.03
2022-09-20T09:17:53.403Z,98798.16
2022-09-20T09:18:53.484Z,98795.67
2022-09-20T09:20:57.492Z,98801.45
2022-09-20T09:22:01.840Z,98800.91
2022-09-20T09:23:02.383Z,98798.81
2022-09-20T09:26:03.852Z,98805.83
2022-09-20T09:27:16.027Z,98808.5
2022-09-20T09:28:11.148Z,98812
2022-09-20T09:31:12.305Z,98817.52
2022-09-20T09:36:23.085Z,98825.84
2022-09-20T09:40:26.693Z,98828.95
2022-09-20T09:41:29.544Z,98832.29
2022-09-20T09:42:25.875Z,98831.09
2022-09-20T09:43:27.678Z,98831.78
2022-09-20T09:44:27.351Z,98832.41
2022-09-20T09:45:27.711Z,98837.14
2022-09-20T09:46:25.892Z,98835.19
2022-09-20T09:47:26.989Z,98838.19
2022-09-20T09:48:27.358Z,98836.05
2022-09-20T09:49:32.493Z,98835.8
2022-09-20T09:50:31.054Z,98838.09
2022-09-20T09:51:28.690Z,98839.93
2022-09-20T09:52:28.745Z,98840.84
2022-09-20T09:53:28.725Z,98839.38
2022-09-20T09:54:30.658Z,98838.91
2022-09-20T09:57:39.513Z,98848.71
2022-09-20T10:00:41.130Z,98849.03
2022-09-20T10:03:52.348Z,98853.38
2022-09-20T10:04:56.761Z,98856.18
2022-09-20T10:15:28.256Z,98872.97
2022-09-20T10:19:47.632Z,98879.2
2022-09-20T10:20:46.621Z,98878.55
2022-09-20T10:24:03.999Z,98876.48
2022-09-20T10:29:08.186Z,98880.79
2022-09-20T10:30:12.110Z,98880.67
2022-09-20T10:31:20.150Z,98884.8
2022-09-20T10:39:31.803Z,98889.28
2022-09-20T10:40:36.898Z,98883.68
2022-09-20T10:44:46.144Z,98891.3
2022-09-20T10:46:47.980Z,98889.96
2022-09-20T10:48:46.700Z,98891.44
2022-09-20T10:51:54.307Z,98894.88
2022-09-20T11:05:29.605Z,98903.36
2022-09-20T11:08:34.463Z,98911.13
2022-09-20T11:09:37.211Z,98910.45
2022-09-20T11:10:45.193Z,98910.56
2022-09-20T11:11:47.640Z,98915.59
2022-09-20T11:12:45.929Z,98909.19
2022-09-20T11:13:48.934Z,98916.48
2022-09-20T11:14:53.728Z,98915.24
2022-09-20T11:17:01.770Z,98918.52
2022-09-20T11:18:02.719Z,98920.27
2022-09-20T11:20:07.921Z,98926
2022-09-20T11:21:15.793Z,98924.36
2022-09-20T11:22:20.150Z,98924.5
2022-09-20T11:23:23.703Z,98924.33
2022-09-20T11:24:21.588Z,98927.8
2022-09-20T11:25:29.450Z,98929.02
2022-09-20T11:27:26.606Z,98930.09
2022-09-20T11:30:25.756Z,98927.81
2022-09-20T11:32:32.534Z,98931.44
2022-09-20T11:33:30.726Z,98935.89
2022-09-20T11:34:31.679Z,98930.77
2022-09-20T11:35:33.975Z,98933.2
2022-09-20T11:39:43.670Z,98934.33
2022-09-20T11:40:37.467Z,98938.35
2022-09-20T11:41:35.426Z,98936.14
2022-09-20T11:42:36.248Z,98940.09
2022-09-20T11:43:36.289Z,98943.03
2022-09-20T11:44:36.237Z,98944.24
2022-09-20T11:45:37.410Z,98942.73
2022-09-20T11:47:54.516Z,98942.22
2022-09-20T11:48:47.204Z,98941.98
2022-09-20T11:56:10.952Z,98941.55
2022-09-20T11:57:11.989Z,98944.7
2022-09-20T11:58:11.023Z,98945.7
2022-09-20T12:00:10.159Z,98943.39
2022-09-20T12:01:12.284Z,98945.25
2022-09-20T12:04:38.154Z,98950.62
2022-09-20T12:06:26.760Z,98947.61
2022-09-20T12:07:25.637Z,98949.83
2022-09-20T12:08:29.518Z,98946.46
2022-09-20T12:09:29.299Z,98945.91
2022-09-20T12:10:30.572Z,98950.53
2022-09-20T12:11:29.679Z,98947.11
2022-09-20T12:12:38.583Z,98952.27
2022-09-20T12:13:31.607Z,98952.76
2022-09-20T12:14:30.312Z,98956.52
2022-09-20T12:15:32.019Z,98952.09
2022-09-20T12:16:43.580Z,98948.12
2022-09-20T12:19:37.825Z,98955.88
2022-09-20T12:22:43.319Z,98960.26
2022-09-20T12:23:44.277Z,98961.48
2022-09-20T12:24:45.607Z,98966.06
2022-09-20T12:26:46.959Z,98966.69
2022-09-20T12:27:55.912Z,98964.14
2022-09-20T12:28:51.870Z,98969.73
2022-09-20T12:31:55.192Z,98968.57
2022-09-20T12:32:54.716Z,98972.68
2022-09-20T12:34:55.861Z,98973.69
2022-09-20T12:35:59.203Z,98974.31
2022-09-20T12:37:57.065Z,98976.53
2022-09-20T12:39:58.874Z,98979.46
2022-09-20T12:43:05.024Z,98981.14
2022-09-20T12:45:18.643Z,98985.7
2022-09-20T12:46:19.207Z,98982.38
2022-09-20T12:47:22.302Z,98982.58
2022-09-20T12:48:18.855Z,98984.38
2022-09-20T12:50:17.214Z,98985.33
2022-09-20T12:52:29.926Z,98988.92
2022-09-20T12:53:26.592Z,98988.75
2022-09-20T12:54:26.675Z,98992.02
2022-09-20T12:56:27.938Z,98998.23
2022-09-20T12:57:30.574Z,98999.95
2022-09-20T12:59:32.924Z,98994.91
2022-09-20T13:00:37.622Z,98998.69
2022-09-20T13:01:36.661Z,98992.73
2022-09-20T13:03:42.702Z,98998.18
2022-09-20T13:05:40.474Z,98999.42
2022-09-20T13:06:39.082Z,98997.28
2022-09-20T13:07:43.641Z,98993.77
2022-09-20T13:08:45.599Z,98995.13
2022-09-20T13:09:41.912Z,99001.13
2022-09-20T13:10:47.680Z,98994.68
2022-09-20T13:11:47.424Z,99001.97
2022-09-20T13:12:44.812Z,99002.05
2022-09-20T13:13:46.462Z,98999.85
2022-09-20T13:14:44.271Z,99002.32
2022-09-20T13:15:47.697Z,98997.38
2022-09-20T13:16:52.238Z,99001.74
2022-09-20T13:17:51.404Z,98999.4
2022-09-20T13:18:55.802Z,99006.77
2022-09-20T13:19:52.211Z,99002.81
2022-09-20T13:20:52.553Z,99003.26
2022-09-20T13:22:57.125Z,98999.24
2022-09-20T13:23:56.442Z,99001.66
2022-09-20T13:24:57.227Z,99000.75
2022-09-20T13:25:57.399Z,99000.12
2022-09-20T13:28:58.752Z,99001.56
2022-09-20T13:34:20.801Z,99002.84
2022-09-20T13:36:14.353Z,99006.79
2022-09-20T13:38:17.885Z,99007.39
2022-09-20T13:40:26.106Z,99010.4
2022-09-20T13:41:22.582Z,99009.31
2022-09-20T13:42:22.716Z,99008.94
2022-09-20T13:43:31.269Z,99015.59
2022-09-20T13:44:22.486Z,99018.5
2022-09-20T13:45:22.692Z,99020.91
2022-09-20T13:46:29.791Z,99018.49
2022-09-20T13:47:29.810Z,99019.77
2022-09-20T13:48:26.998Z,99016.73
2022-09-20T13:49:30.638Z,99020.62
2022-09-20T13:50:31.731Z,99020.59
2022-09-20T13:51:28.194Z,99019.74
2022-09-20T13:52:29.401Z,99021.35
2022-09-20T13:53:41.251Z,99023.53
2022-09-20T13:54:33.329Z,99025.77
2022-09-20T13:55:37.797Z,99027.98
2022-09-20T13:56:34.676Z,99027.86
2022-09-20T13:57:34.677Z,99028.27
2022-09-20T13:58:35.407Z,99024.36
2022-09-20T13:59:39.849Z,99028.55
2022-09-20T14:00:37.170Z,99031.02
2022-09-20T14:01:36.122Z,99028.07
2022-09-20T14:02:36.651Z,99031.24
2022-09-20T14:03:36.272Z,99030.96
2022-09-20T14:04:38.405Z,99033.17
2022-09-20T14:05:36.152Z,99035.5
2022-09-20T14:06:36.385Z,99033.63
2022-09-20T14:07:36.270Z,99035.78
2022-09-20T14:08:43.865Z,99035.59
2022-09-20T14:09:40.466Z,99038.8
2022-09-20T14:10:40.080Z,99036.56
2022-09-20T14:11:40.322Z,99042.35
2022-09-20T14:12:40.305Z,99037.59
2022-09-20T14:13:41.496Z,99039.09
2022-09-20T14:14:41.038Z,99040.25
2022-09-20T14:15:47.203Z,99038.78
2022-09-20T14:16:44.744Z,99044.52
2022-09-20T14:17:43.660Z,99044.45
2022-09-20T14:18:43.830Z,99047.48
2022-09-20T14:19:43.875Z,99046.54
2022-09-20T14:20:46.716Z,99047.02
2022-09-20T14:21:44.037Z,99050.85
2022-09-20T14:22:43.898Z,99050.25
2022-09-20T14:23:51.328Z,99049.76
2022-09-20T14:30:06.323Z,99059.56
2022-09-20T14:31:08.483Z,99057.06
2022-09-20T14:33:14.593Z,99061.84
2022-09-20T14:34:12.382Z,99062.55
2022-09-20T14:35:16.164Z,99063.31
2022-09-20T14:36:13.863Z,99060.55
2022-09-20T14:37:23.788Z,99065
2022-09-20T14:38:17.190Z,99064.82
2022-09-20T14:39:17.301Z,99065.7
2022-09-20T14:40:28.744Z,99066.87
2022-09-20T14:44:34.288Z,99072.28
2022-09-20T14:49:34.389Z,99078.97
2022-09-20T14:50:35.848Z,99075.88
2022-09-20T14:51:34.244Z,99081.16
2022-09-20T14:52:37.922Z,99079.73
2022-09-20T14:53:34.583Z,99076.2
2022-09-20T14:54:34.635Z,99077.47
2022-09-20T14:55:37.397Z,99084.36
2022-09-20T14:56:36.309Z,99084.3
2022-09-20T14:57:35.171Z,99089.95
2022-09-20T15:01:46.173Z,99089.27
2022-09-20T15:02:44.492Z,99091.91
2022-09-20T15:03:43.842Z,99092.02
2022-09-20T15:04:52.157Z,99092.51
2022-09-20T15:05:49.278Z,99098.42
2022-09-20T15:06:49.668Z,99091.95
2022-09-20T15:07:48.433Z,99094.76
2022-09-20T15:08:48.482Z,99097
2022-09-20T15:09:48.565Z,99101.81
2022-09-20T15:10:48.801Z,99106.59
2022-09-20T15:12:52.554Z,99114.33
2022-09-20T15:13:52.555Z,99113.21
2022-09-20T15:14:52.631Z,99118.52
2022-09-20T15:15:53.251Z,99117.02
2022-09-20T15:16:53.122Z,99122.2
2022-09-20T15:17:52.615Z,99127.59
2022-09-20T15:18:52.574Z,99122.34
2022-09-20T15:19:52.597Z,99124.48
2022-09-20T15:20:53.423Z,99125.28
2022-09-20T15:21:52.748Z,99130.3
2022-09-20T15:22:52.630Z,99133.84
2022-09-20T15:23:52.747Z,99135.61
2022-09-20T15:24:52.679Z,99135.9
2022-09-20T15:25:53.813Z,99140.3
2022-09-20T15:26:52.690Z,99139.37
2022-09-20T15:27:52.716Z,99145.2
2022-09-20T15:28:52.726Z,99143.97
2022-09-20T15:29:52.904Z,99146.3
2022-09-20T15:30:52.788Z,99144.38
2022-09-20T15:31:53.037Z,99150.2
2022-09-20T15:32:52.843Z,99150.31
2022-09-20T15:33:53.018Z,99149.14
2022-09-20T15:34:52.827Z,99152.48
2022-09-20T15:35:52.863Z,99155.41
2022-09-20T15:36:53.834Z,99157.27
2022-09-20T15:37:52.860Z,99157.83
2022-09-20T15:38:55.917Z,99159.17
2022-09-20T15:39:52.889Z,99160.78
2022-09-20T15:40:53.340Z,99164.86
2022-09-20T15:41:53.205Z,99164.56
2022-09-20T15:42:56.301Z,99167.19
2022-09-20T15:43:52.973Z,99169.23
2022-09-20T15:44:52.988Z,99167.55
2022-09-20T15:45:57.379Z,99160.95
2022-09-20T15:46:53.671Z,99166.18
2022-09-20T15:47:54.219Z,99168.91
2022-09-20T15:48:54.294Z,99170.42
2022-09-20T15:49:53.671Z,99172.98
2022-09-20T15:51:57.077Z,99174.69
2022-09-20T15:53:00.115Z,99178.14
2022-09-20T15:53:58.626Z,99176.06
2022-09-20T15:54:57.138Z,99178.31
2022-09-20T15:55:57.821Z,99178
2022-09-20T15:56:57.162Z,99179.84
2022-09-20T15:57:57.167Z,99177.91
2022-09-20T15:59:01.259Z,99179.09
2022-09-20T15:59:57.580Z,99179.76
2022-09-20T16:02:00.667Z,99183.81
2022-09-20T16:03:00.606Z,99182.69
2022-09-20T16:04:04.865Z,99184.41
2022-09-20T16:05:01.072Z,99187.48
2022-09-20T16:06:04.611Z,99191.26
2022-09-20T16:07:01.109Z,99190.9
2022-09-20T16:08:01.347Z,99192.65
2022-09-20T16:09:01.423Z,99190.3
2022-09-20T16:10:01.399Z,99193.56
2022-09-20T16:11:01.685Z,99191.89
2022-09-20T16:12:01.516Z,99193.68
2022-09-20T16:13:01.224Z,99195.97
2022-09-20T16:14:01.514Z,99195
2022-09-20T16:15:01.258Z,99193.74
2022-09-20T16:16:01.861Z,99197.2
2022-09-20T16:17:01.917Z,99197.33
2022-09-20T16:18:01.330Z,99193.22
2022-09-20T16:19:01.300Z,99201.12
2022-09-20T16:20:01.608Z,99200
2022-09-20T16:22:02.616Z,99199.3
2022-09-20T16:23:02.661Z,99196.19
2022-09-20T16:24:02.899Z,99196.53
2022-09-20T16:25:02.702Z,99197.41
2022-09-20T16:26:02.835Z,99199.43
2022-09-20T16:27:03.781Z,99197.31
2022-09-20T16:28:02.711Z,99201.2
2022-09-20T16:29:03.145Z,99203.06
2022-09-20T16:30:02.948Z,99198.3
2022-09-20T16:31:02.749Z,99203.21
2022-09-20T16:32:03.420Z,99201.7
2022-09-20T16:33:03.119Z,99203.44
2022-09-20T16:34:03.584Z,99201.88
2022-09-20T16:35:02.985Z,99202.67
2022-09-20T16:36:02.891Z,99203.01
2022-09-20T16:37:04.685Z,99203.25
2022-09-20T16:38:02.841Z,99203.08
2022-09-20T16:39:03.108Z,99202.27
2022-09-20T16:40:03.124Z,99202.7
2022-09-20T16:41:02.960Z,99203.2
2022-09-20T16:42:04.961Z,99204.58
2022-09-20T16:43:02.984Z,99207.19
2022-09-20T16:44:02.987Z,99208.28
2022-09-20T16:45:03.209Z,99214.66
2022-09-20T16:46:03.100Z,99212.68
2022-09-20T16:47:07.348Z,99217.75
2022-09-20T16:48:08.290Z,99215.66
2022-09-20T16:49:06.619Z,99219.72
2022-09-20T16:50:05.334Z,99215.59
2022-09-20T16:51:05.335Z,99220.11
2022-09-20T16:52:05.585Z,99218.59
2022-09-20T16:53:05.100Z,99219.58
2022-09-20T16:54:06.571Z,99217.48
2022-09-20T16:55:05.585Z,99220.03
2022-09-20T16:56:05.028Z,99223.08
2022-09-20T16:57:05.281Z,99225.9
2022-09-20T16:58:05.068Z,99224.22
2022-09-20T16:59:05.789Z,99224.98
2022-09-20T17:00:05.600Z,99227.56
2022-09-20T17:01:06.476Z,99227.71
2022-09-20T17:02:05.112Z,99229.45
2022-09-20T17:03:05.153Z,99232.83
2022-09-20T17:04:05.740Z,99230.73
2022-09-20T17:05:05.633Z,99232.89
2022-09-20T17:06:05.338Z,99231.2
2022-09-20T17:07:05.174Z,99233.1
2022-09-20T17:08:05.271Z,99230.98
2022-09-20T17:09:05.747Z,99235.38
2022-09-20T17:10:05.673Z,99235.55
2022-09-20T17:11:06.511Z,99233.05
2022-09-20T17:12:05.474Z,99236.88
2022-09-20T17:13:05.306Z,99239.18
2022-09-20T17:14:05.890Z,99236.59
2022-09-20T17:15:05.812Z,99240.09
2022-09-20T17:16:07.898Z,99244.55
2022-09-20T17:17:05.666Z,99239.48
2022-09-20T17:18:05.462Z,99242.41
2022-09-20T17:19:07.138Z,99242.33
2022-09-20T17:20:05.867Z,99244.05
2022-09-20T17:21:06.254Z,99245.16
2022-09-20T17:22:05.448Z,99246.52
2022-09-20T17:23:05.809Z,99249.67
2022-09-20T17:24:06.479Z,99251.51
2022-09-20T17:25:05.881Z,99253.19
2022-09-20T17:26:06.495Z,99254.06
2022-09-20T17:27:05.499Z,99252.43
2022-09-20T17:28:05.525Z,99258.19
2022-09-20T17:29:06.844Z,99257.28
2022-09-20T17:30:06.271Z,99261
2022-09-20T17:31:06.409Z,99255.73
2022-09-20T17:32:05.676Z,99258.53
2022-09-20T17:33:08.329Z,99261.7
2022-09-20T17:34:07.078Z,99262.86
2022-09-20T17:35:06.089Z,99260.79
2022-09-20T17:36:06.359Z,99262.63
2022-09-20T17:37:05.955Z,99263.16
2022-09-20T17:38:05.694Z,99264.4
2022-09-20T17:39:06.517Z,99264.67
2022-09-20T17:40:06.372Z,99264.33
2022-09-20T17:41:07.028Z,99268.34
2022-09-20T17:42:06.097Z,99269.28
2022-09-20T17:43:05.784Z,99267.28
2022-09-20T17:44:06.117Z,99271.6
2022-09-20T17:45:06.567Z,99272.62
2022-09-20T17:47:10.543Z,99274.75
2022-09-20T17:48:10.561Z,99282.47
2022-09-20T17:49:11.694Z,99280.28
2022-09-20T17:50:10.623Z,99284.91
2022-09-20T17:51:12.697Z,99285.29
2022-09-20T17:52:10.635Z,99289.42
2022-09-20T17:53:10.629Z,99286.98
2022-09-20T17:54:11.086Z,99294.49
2022-09-20T17:55:10.846Z,99289.97
2022-09-20T17:56:11.723Z,99293.4
2022-09-20T17:57:10.716Z,99292.03
2022-09-20T17:58:10.709Z,99294.55
2022-09-20T17:59:11.416Z,99294.68
2022-09-20T18:00:11.376Z,99295.2
2022-09-20T18:01:13.006Z,99299.16
2022-09-20T18:02:10.779Z,99299.44
2022-09-20T18:03:10.799Z,99300.57
2022-09-20T18:04:11.247Z,99294.93
2022-09-20T18:05:10.841Z,99301.44
2022-09-20T18:07:12.210Z,99299.72
2022-09-20T18:08:12.191Z,99297.41
2022-09-20T18:09:14.551Z,99298.3
2022-09-20T18:10:12.249Z,99302.67
2022-09-20T18:11:12.851Z,99303.03
2022-09-20T18:12:17.572Z,99303.67
2022-09-20T18:13:15.208Z,99306.28
2022-09-20T18:14:16.130Z,99308.08
2022-09-20T18:15:15.422Z,99304.8
2022-09-20T18:16:15.751Z,99308.8
2022-09-20T18:17:15.392Z,99306.92
2022-09-20T18:18:15.280Z,99311.82